| Temperature (°F) | Max | Average | Min |
|---|---|---|---|
| Max Temperature | 50 | 30.44 | 2 |
| Avg Temperature | 38.7 | 24.7 | -3.61 |
| Min Temperature | 35 | 19.25 | -10 |
| Precipitation (in) | Max | Average | Min | Sum |
|---|---|---|---|---|
| Precipitation | 1.68 | 0.06 | 0 | 1.9 |
| Dew Point (°F) | Max | Average | Min |
|---|---|---|---|
| Dew Point | 36.84 | 17.85 | -14.36 |
| Wind (mph) | Max | Average | Min |
|---|---|---|---|
| Wind | 31 | 14.06 | 7 |
| Gust Wind | 46 | 26.28 | 17 |
| Sea Level Pressure (in) | Max | Average | Min |
|---|---|---|---|
| Sea Level Pressure | 29.58 | 29.1 | 28.63 |
| Date | Temp High/Low | Dew Pt High/Low | Humidity | Wind | Max Wind | Wind Gust | Pressure | Precip. | Condition |
|---|---|---|---|---|---|---|---|---|---|
| 12/1/2024 | 16 °F / 7 °F | 8 °F / -1 °F | 72 % | 12 mph | - | 29.29 in | 0 in | ||
| 12/2/2024 | 25 °F / 16 °F | 16 °F / 9 °F | 77 % | 12 mph | - | 29.44 in | 0 in | ||
| 12/3/2024 | 27 °F / 17 °F | 18 °F / 13 °F | 74 % | 14 mph | - | 29.26 in | 0 in | ||
| 12/4/2024 | 34 °F / 8 °F | 30 °F / -4 °F | 71 % | 31 mph | - | 28.74 in | 0 in | ||
| 12/5/2024 | 23 °F / 8 °F | 9 °F / -3 °F | 64 % | 17 mph | - | 29.35 in | 0 in | ||
| 12/6/2024 | 31 °F / 12 °F | 18 °F / 7 °F | 59 % | 14 mph | - | 29.16 in | 0 in | ||
| 12/7/2024 | 50 °F / 25 °F | 29 °F / 16 °F | 59 % | 16 mph | - | 28.75 in | 0 in | ||
| 12/8/2024 | 42 °F / 30 °F | 32 °F / 28 °F | 76 % | 13 mph | - | 28.67 in | 0 in | ||
| 12/9/2024 | 43 °F / 27 °F | 31 °F / 21 °F | 81 % | 20 mph | - | 28.71 in | 0 in | ||
| 12/10/2024 | 27 °F / 21 °F | 20 °F / 12 °F | 69 % | 14 mph | - | 28.96 in | 0 in | ||
| 12/11/2024 | 21 °F / -5 °F | 17 °F / -16 °F | 68 % | 21 mph | - | 28.99 in | 0 in | ||
| 12/12/2024 | 2 °F / -9 °F | -11 °F / -17 °F | 63 % | 13 mph | - | 29.4 in | 0 in | ||
| 12/13/2024 | 16 °F / -10 °F | 1 °F / -16 °F | 61 % | 10 mph | - | 29.6 in | 0 in | ||
| 12/14/2024 | 33 °F / 15 °F | 30 °F / 4 °F | 77 % | 14 mph | - | 29.36 in | 0 in | ||
| 12/15/2024 | 38 °F / 33 °F | 36 °F / 31 °F | 93 % | 15 mph | - | 29.07 in | 0 in | ||
| 12/16/2024 | 40 °F / 32 °F | 33 °F / 23 °F | 79 % | 22 mph | - | 28.86 in | 0 in | ||
| 12/17/2024 | 31 °F / 27 °F | 22 °F / 20 °F | 71 % | 14 mph | - | 29.21 in | 0 in | ||
| 12/18/2024 | 27 °F / 19 °F | 21 °F / 8 °F | 67 % | 16 mph | - | 29.36 in | 0 in | ||
| 12/19/2024 | 24 °F / 19 °F | 17 °F / 8 °F | 77 % | 15 mph | - | 29.16 in | 0.15 in | ||
| 12/20/2024 | 22 °F / -1 °F | 17 °F / -5 °F | 76 % | 10 mph | - | 29.38 in | 0.03 in | ||
| 12/21/2024 | 17 °F / -10 °F | 8 °F / -16 °F | 74 % | 10 mph | - | 29.46 in | 0 in | ||
| 12/22/2024 | 31 °F / 17 °F | 23 °F / 8 °F | 69 % | 13 mph | - | 29.14 in | 0 in | ||
| 12/23/2024 | 36 °F / 30 °F | 27 °F / 24 °F | 77 % | 10 mph | - | 29.1 in | 0 in | ||
| 12/24/2024 | 31 °F / 27 °F | 24 °F / 21 °F | 75 % | 9 mph | - | 29.35 in | 0 in | ||
| 12/25/2024 | 29 °F / 26 °F | 22 °F / 20 °F | 77 % | 12 mph | - | 29.26 in | 0 in | ||
| 12/26/2024 | 36 °F / 26 °F | 34 °F / 22 °F | 89 % | 7 mph | - | 29.12 in | 0.01 in | ||
| 12/27/2024 | 42 °F / 35 °F | 40 °F / 34 °F | 94 % | 8 mph | - | 28.82 in | 1.16 in | ||
| 12/28/2024 | 41 °F / 28 °F | 38 °F / 27 °F | 94 % | 13 mph | - | 28.81 in | 0.55 in | ||
| 12/29/2024 | 34 °F / 30 °F | 32 °F / 29 °F | 95 % | 8 mph | - | 28.83 in | 0 in | ||
| 12/30/2024 | 31 °F / 30 °F | 29 °F / 28 °F | 92 % | 8 mph | - | 28.8 in | 0 in | ||
| 12/31/2024 | 31 °F / 27 °F | 28 °F / 18 °F | 83 % | 13 mph | - | 28.93 in | 0 in |